KRF336 RJTT-RKSM
Flight info
| Callsign | KRF336 |
|---|---|
| Flight time | 1h 56m |
| Altitude | 38000 |
| Route | BEKLA Y18 PIGAP Y182 BIDIK Y16 SAPRA G585 KAKSO DCT MUGAR DCT TORIA |
| Aircraft | A332/H-SDE3GHIJ2J3J5M1RVWXY/LB2D1 |
Departure
| Time | 2026-05-05 05:02 |
|---|---|
| Airport | Tokyo Haneda International Airport (RJTT) |
Arrival
| Time | 2026-05-05 06:59 |
|---|---|
| Airport | Seoul Air Base (K-16) (RKSM) |
| Time | Latitude | Longitude | Altitude | Speed | Heading |
|---|---|---|---|---|---|
| 2026-05-05 04:44 | 35.55038 | 139.77023 | 29 ft | 0 kts | 151° |
| 2026-05-05 04:49 | 35.55040 | 139.77021 | 29 ft | 1 kts | 151° |
| 2026-05-05 04:49 | 35.55046 | 139.77017 | 29 ft | 1 kts | 151° |
| 2026-05-05 04:50 | 35.55053 | 139.77012 | 28 ft | 1 kts | 151° |
| 2026-05-05 04:50 | 35.55060 | 139.77008 | 26 ft | 1 kts | 151° |
| 2026-05-05 04:50 | 35.55066 | 139.77004 | 27 ft | 1 kts | 151° |
| 2026-05-05 04:50 | 35.55070 | 139.77001 | 27 ft | 1 kts | 151° |
| 2026-05-05 04:51 | 35.55090 | 139.76988 | 26 ft | 4 kts | 108° |
| 2026-05-05 04:51 | 35.55093 | 139.76970 | 29 ft | 0 kts | 55° |
| 2026-05-05 04:54 | 35.55098 | 139.76981 | 29 ft | 2 kts | 59° |
| 2026-05-05 04:54 | 35.55108 | 139.77009 | 29 ft | 4 kts | 70° |
| 2026-05-05 04:54 | 35.55168 | 139.77086 | 29 ft | 28 kts | 18° |
| 2026-05-05 04:54 | 35.55375 | 139.76969 | 29 ft | 48 kts | 330° |
| 2026-05-05 04:55 | 35.55521 | 139.76929 | 29 ft | 12 kts | 28° |
| 2026-05-05 04:55 | 35.55595 | 139.76987 | 29 ft | 13 kts | 34° |
| 2026-05-05 04:55 | 35.55673 | 139.77056 | 29 ft | 14 kts | 37° |
| 2026-05-05 04:55 | 35.55752 | 139.77123 | 30 ft | 14 kts | 34° |
| 2026-05-05 04:56 | 35.55839 | 139.77203 | 29 ft | 17 kts | 36° |
| 2026-05-05 04:56 | 35.55938 | 139.77286 | 29 ft | 18 kts | 34° |
| 2026-05-05 04:56 | 35.56042 | 139.77375 | 29 ft | 18 kts | 36° |
| 2026-05-05 04:56 | 35.56056 | 139.77387 | 29 ft | 1 kts | 36° |
| 2026-05-05 04:57 | 35.56070 | 139.77400 | 29 ft | 4 kts | 36° |
| 2026-05-05 04:57 | 35.56098 | 139.77424 | 29 ft | 6 kts | 35° |
| 2026-05-05 04:57 | 35.56138 | 139.77457 | 29 ft | 8 kts | 34° |
| 2026-05-05 04:57 | 35.56189 | 139.77500 | 29 ft | 10 kts | 34° |
| 2026-05-05 04:58 | 35.56250 | 139.77554 | 28 ft | 11 kts | 41° |
| 2026-05-05 04:58 | 35.56254 | 139.77635 | 29 ft | 9 kts | 120° |
| 2026-05-05 04:58 | 35.56202 | 139.77685 | 29 ft | 10 kts | 148° |
| 2026-05-05 04:58 | 35.56161 | 139.77754 | 29 ft | 10 kts | 102° |
| 2026-05-05 04:59 | 35.56185 | 139.77835 | 29 ft | 11 kts | 59° |
| 2026-05-05 04:59 | 35.56227 | 139.77919 | 29 ft | 12 kts | 59° |
| 2026-05-05 04:59 | 35.56272 | 139.78015 | 29 ft | 14 kts | 60° |
| 2026-05-05 04:59 | 35.56321 | 139.78121 | 29 ft | 15 kts | 60° |
| 2026-05-05 05:00 | 35.56374 | 139.78235 | 29 ft | 16 kts | 60° |
| 2026-05-05 05:00 | 35.56431 | 139.78355 | 29 ft | 17 kts | 59° |
| 2026-05-05 05:00 | 35.56491 | 139.78481 | 29 ft | 18 kts | 60° |
| 2026-05-05 05:00 | 35.56554 | 139.78611 | 29 ft | 18 kts | 66° |
| 2026-05-05 05:01 | 35.56507 | 139.78715 | 29 ft | 4 kts | 149° |
| 2026-05-05 05:01 | 35.56503 | 139.78718 | 29 ft | 4 kts | 149° |
| 2026-05-05 05:01 | 35.56222 | 139.78920 | 30 ft | 94 kts | 150° |
| 2026-05-05 05:01 | 35.55415 | 139.79493 | 44 ft | 167 kts | 148° |
| 2026-05-05 05:02 | 35.54332 | 139.80217 | 628 ft | 186 kts | 149° |
| 2026-05-05 05:02 | 35.53242 | 139.81095 | 1587 ft | 190 kts | 138° |
| 2026-05-05 05:02 | 35.52319 | 139.82347 | 2373 ft | 207 kts | 129° |
| 2026-05-05 05:02 | 35.51376 | 139.83780 | 3068 ft | 225 kts | 130° |
| 2026-05-05 05:03 | 35.50298 | 139.85281 | 3646 ft | 245 kts | 134° |
| 2026-05-05 05:03 | 35.49065 | 139.86850 | 4211 ft | 261 kts | 136° |
| 2026-05-05 05:03 | 35.47774 | 139.88408 | 5030 ft | 266 kts | 137° |
| 2026-05-05 05:03 | 35.46487 | 139.90002 | 5808 ft | 273 kts | 129° |
| 2026-05-05 05:04 | 35.45663 | 139.92130 | 6579 ft | 280 kts | 100° |
| 2026-05-05 05:04 | 35.45706 | 139.94511 | 7424 ft | 282 kts | 73° |
| 2026-05-05 05:04 | 35.46599 | 139.96626 | 8283 ft | 281 kts | 48° |
| 2026-05-05 05:04 | 35.47983 | 139.98320 | 9135 ft | 282 kts | 32° |
| 2026-05-05 05:05 | 35.49760 | 139.99246 | 10065 ft | 277 kts | 7° |
| 2026-05-05 05:05 | 35.51714 | 139.99249 | 10610 ft | 290 kts | 346° |
| 2026-05-05 05:05 | 35.53724 | 139.98535 | 10908 ft | 312 kts | 342° |
| 2026-05-05 05:05 | 35.55855 | 139.97756 | 11471 ft | 324 kts | 342° |
| 2026-05-05 05:06 | 35.58012 | 139.96997 | 12345 ft | 327 kts | 342° |
| 2026-05-05 05:06 | 35.60248 | 139.96370 | 13186 ft | 333 kts | 348° |
| 2026-05-05 05:06 | 35.62578 | 139.96141 | 14045 ft | 340 kts | 355° |
| 2026-05-05 05:06 | 35.64963 | 139.96278 | 14813 ft | 345 kts | 359° |
| 2026-05-05 05:07 | 35.67375 | 139.96406 | 15541 ft | 347 kts | 353° |
| 2026-05-05 05:07 | 35.69726 | 139.95803 | 16282 ft | 344 kts | 335° |
| 2026-05-05 05:07 | 35.71788 | 139.94358 | 17080 ft | 342 kts | 319° |
| 2026-05-05 05:07 | 35.73404 | 139.92216 | 17850 ft | 343 kts | 303° |
| 2026-05-05 05:08 | 35.74429 | 139.89553 | 18614 ft | 347 kts | 286° |
| 2026-05-05 05:08 | 35.74847 | 139.86619 | 19351 ft | 349 kts | 278° |
| 2026-05-05 05:08 | 35.75186 | 139.83650 | 20149 ft | 350 kts | 278° |
| 2026-05-05 05:08 | 35.75536 | 139.80681 | 20936 ft | 352 kts | 278° |
| 2026-05-05 05:09 | 35.75892 | 139.77690 | 21723 ft | 354 kts | 278° |
| 2026-05-05 05:09 | 35.76251 | 139.74673 | 22520 ft | 356 kts | 278° |
| 2026-05-05 05:09 | 35.76747 | 139.71677 | 23273 ft | 360 kts | 284° |
| 2026-05-05 05:09 | 35.77482 | 139.68752 | 24014 ft | 363 kts | 285° |
| 2026-05-05 05:10 | 35.78237 | 139.65786 | 24790 ft | 362 kts | 284° |
| 2026-05-05 05:10 | 35.78982 | 139.62831 | 25610 ft | 360 kts | 283° |
| 2026-05-05 05:10 | 35.79721 | 139.59879 | 26421 ft | 361 kts | 283° |
| 2026-05-05 05:10 | 35.80462 | 139.56898 | 26996 ft | 366 kts | 283° |
| 2026-05-05 05:11 | 35.81207 | 139.53906 | 27762 ft | 366 kts | 282° |
| 2026-05-05 05:11 | 35.81950 | 139.50912 | 28531 ft | 365 kts | 280° |
| 2026-05-05 05:11 | 35.82526 | 139.47885 | 29319 ft | 361 kts | 275° |
| 2026-05-05 05:11 | 35.82856 | 139.44831 | 30063 ft | 359 kts | 270° |
| 2026-05-05 05:12 | 35.82956 | 139.41770 | 30727 ft | 357 kts | 267° |
| 2026-05-05 05:12 | 35.82989 | 139.38696 | 31312 ft | 360 kts | 267° |
| 2026-05-05 05:12 | 35.83037 | 139.35596 | 31874 ft | 363 kts | 267° |
| 2026-05-05 05:12 | 35.83087 | 139.32519 | 32440 ft | 365 kts | 267° |
| 2026-05-05 05:13 | 35.83137 | 139.29383 | 32996 ft | 367 kts | 267° |
| 2026-05-05 05:13 | 35.83186 | 139.26228 | 33459 ft | 370 kts | 266° |
| 2026-05-05 05:13 | 35.83232 | 139.23052 | 33959 ft | 371 kts | 266° |
| 2026-05-05 05:13 | 35.83275 | 139.19847 | 34239 ft | 375 kts | 267° |
| 2026-05-05 05:14 | 35.83294 | 139.16640 | 34653 ft | 373 kts | 265° |
| 2026-05-05 05:14 | 35.83154 | 139.13445 | 35030 ft | 373 kts | 263° |
| 2026-05-05 05:14 | 35.83049 | 139.11328 | 35282 ft | 373 kts | 263° |
| 2026-05-05 05:14 | 35.82893 | 139.08137 | 35601 ft | 373 kts | 263° |
| 2026-05-05 05:15 | 35.82739 | 139.04952 | 36007 ft | 372 kts | 263° |
| 2026-05-05 05:15 | 35.82582 | 139.01759 | 36258 ft | 373 kts | 263° |
| 2026-05-05 05:15 | 35.82423 | 138.98562 | 36675 ft | 372 kts | 263° |
| 2026-05-05 05:15 | 35.82265 | 138.95386 | 37072 ft | 372 kts | 263° |
| 2026-05-05 05:16 | 35.82106 | 138.92197 | 37499 ft | 373 kts | 263° |
| 2026-05-05 05:16 | 35.81950 | 138.89010 | 37909 ft | 372 kts | 263° |
| 2026-05-05 05:16 | 35.81789 | 138.85839 | 37987 ft | 370 kts | 263° |
| 2026-05-05 05:16 | 35.81630 | 138.82679 | 38096 ft | 369 kts | 263° |
| 2026-05-05 05:17 | 35.81468 | 138.79567 | 38176 ft | 368 kts | 263° |
| 2026-05-05 05:17 | 35.81143 | 138.73285 | 38172 ft | 367 kts | 263° |
| 2026-05-05 05:18 | 35.80812 | 138.66962 | 38172 ft | 373 kts | 263° |
| 2026-05-05 05:18 | 35.80479 | 138.60617 | 38165 ft | 370 kts | 263° |
| 2026-05-05 05:19 | 35.80145 | 138.54280 | 38164 ft | 370 kts | 263° |
| 2026-05-05 05:19 | 35.79807 | 138.47956 | 38160 ft | 370 kts | 263° |
| 2026-05-05 05:20 | 35.79466 | 138.41615 | 38159 ft | 370 kts | 263° |
| 2026-05-05 05:20 | 35.79348 | 138.35260 | 38156 ft | 373 kts | 269° |
| 2026-05-05 05:21 | 35.79982 | 138.28929 | 38159 ft | 377 kts | 275° |
| 2026-05-05 05:21 | 35.81388 | 138.22626 | 38155 ft | 386 kts | 281° |
| 2026-05-05 05:22 | 35.83118 | 138.16328 | 38179 ft | 389 kts | 281° |
| 2026-05-05 05:22 | 35.84826 | 138.10039 | 38148 ft | 386 kts | 281° |
| 2026-05-05 05:23 | 35.86524 | 138.03762 | 38150 ft | 386 kts | 281° |
| 2026-05-05 05:23 | 35.88222 | 137.97473 | 38145 ft | 387 kts | 281° |
| 2026-05-05 05:24 | 35.89923 | 137.91159 | 38144 ft | 387 kts | 281° |
| 2026-05-05 05:24 | 35.91618 | 137.84864 | 38134 ft | 386 kts | 281° |
| 2026-05-05 05:25 | 35.93300 | 137.78593 | 38153 ft | 384 kts | 281° |
| 2026-05-05 05:25 | 35.94976 | 137.72308 | 38190 ft | 389 kts | 281° |
| 2026-05-05 05:26 | 35.96674 | 137.65941 | 38157 ft | 391 kts | 281° |
| 2026-05-05 05:26 | 35.98374 | 137.59566 | 38158 ft | 390 kts | 281° |
| 2026-05-05 05:27 | 35.99997 | 137.53189 | 38157 ft | 387 kts | 278° |
| 2026-05-05 05:27 | 36.01214 | 137.43493 | 38174 ft | 380 kts | 269° |
| 2026-05-05 05:28 | 36.01259 | 137.36966 | 38133 ft | 380 kts | 266° |
| 2026-05-05 05:28 | 36.01265 | 137.30439 | 38141 ft | 380 kts | 266° |
| 2026-05-05 05:29 | 36.01262 | 137.23890 | 38129 ft | 381 kts | 266° |
| 2026-05-05 05:29 | 36.01250 | 137.17352 | 38155 ft | 381 kts | 266° |
| 2026-05-05 05:30 | 36.01233 | 137.10808 | 38150 ft | 380 kts | 266° |
| 2026-05-05 05:30 | 36.01213 | 137.04267 | 38147 ft | 381 kts | 266° |
| 2026-05-05 05:31 | 36.01187 | 136.97672 | 38134 ft | 387 kts | 266° |
| 2026-05-05 05:31 | 36.01162 | 136.91100 | 38136 ft | 384 kts | 266° |
| 2026-05-05 05:32 | 36.01132 | 136.84500 | 38151 ft | 384 kts | 266° |
| 2026-05-05 05:32 | 36.01097 | 136.77900 | 38152 ft | 385 kts | 266° |
| 2026-05-05 05:33 | 36.01060 | 136.71317 | 38149 ft | 381 kts | 266° |
| 2026-05-05 05:33 | 36.01017 | 136.64760 | 38119 ft | 381 kts | 266° |
| 2026-05-05 05:34 | 36.00970 | 136.58236 | 38152 ft | 387 kts | 266° |
| 2026-05-05 05:34 | 36.00921 | 136.51578 | 38147 ft | 387 kts | 266° |
| 2026-05-05 05:35 | 36.00869 | 136.44938 | 38149 ft | 386 kts | 266° |
| 2026-05-05 05:35 | 36.00813 | 136.38294 | 38150 ft | 386 kts | 266° |
| 2026-05-05 05:36 | 36.00751 | 136.31656 | 38146 ft | 387 kts | 266° |
| 2026-05-05 05:36 | 36.00688 | 136.25023 | 38135 ft | 386 kts | 266° |
| 2026-05-05 05:37 | 36.00620 | 136.18407 | 38133 ft | 385 kts | 266° |
| 2026-05-05 05:37 | 36.00549 | 136.11807 | 38137 ft | 384 kts | 266° |
| 2026-05-05 05:38 | 36.00476 | 136.05212 | 38132 ft | 384 kts | 266° |
| 2026-05-05 05:38 | 36.00396 | 135.98611 | 38132 ft | 384 kts | 266° |
| 2026-05-05 05:39 | 36.00313 | 135.92006 | 38139 ft | 385 kts | 266° |
| 2026-05-05 05:39 | 36.00228 | 135.85435 | 38151 ft | 385 kts | 266° |
| 2026-05-05 05:40 | 36.00138 | 135.78816 | 38160 ft | 386 kts | 266° |
| 2026-05-05 05:40 | 36.00043 | 135.72143 | 38154 ft | 389 kts | 266° |
| 2026-05-05 05:41 | 35.99947 | 135.65463 | 38169 ft | 388 kts | 266° |
| 2026-05-05 05:41 | 35.99845 | 135.58788 | 38154 ft | 389 kts | 266° |
| 2026-05-05 05:42 | 35.99740 | 135.52113 | 38161 ft | 388 kts | 266° |
| 2026-05-05 05:42 | 35.99633 | 135.45534 | 38153 ft | 388 kts | 266° |
| 2026-05-05 05:43 | 35.99522 | 135.38914 | 38139 ft | 388 kts | 266° |
| 2026-05-05 05:43 | 35.99406 | 135.32234 | 38143 ft | 389 kts | 266° |
| 2026-05-05 05:44 | 35.99286 | 135.25541 | 38157 ft | 390 kts | 266° |
| 2026-05-05 05:44 | 35.99162 | 135.18843 | 38148 ft | 390 kts | 266° |
| 2026-05-05 05:45 | 35.99035 | 135.12138 | 38152 ft | 391 kts | 266° |
| 2026-05-05 05:45 | 35.98903 | 135.05430 | 38162 ft | 391 kts | 265° |
| 2026-05-05 05:46 | 35.98768 | 134.98719 | 38161 ft | 390 kts | 265° |
| 2026-05-05 05:46 | 35.98630 | 134.92051 | 38140 ft | 392 kts | 266° |
| 2026-05-05 05:47 | 35.98487 | 134.85323 | 38141 ft | 392 kts | 265° |
| 2026-05-05 05:47 | 35.98340 | 134.78578 | 38142 ft | 393 kts | 265° |
| 2026-05-05 05:48 | 35.98189 | 134.71834 | 38151 ft | 393 kts | 265° |
| 2026-05-05 05:48 | 35.98033 | 134.65083 | 38158 ft | 393 kts | 265° |
| 2026-05-05 05:49 | 35.97872 | 134.58311 | 38151 ft | 393 kts | 265° |
| 2026-05-05 05:49 | 35.97708 | 134.51548 | 38151 ft | 394 kts | 265° |
| 2026-05-05 05:50 | 35.97542 | 134.44823 | 38148 ft | 395 kts | 265° |
| 2026-05-05 05:50 | 35.97370 | 134.38050 | 38156 ft | 395 kts | 265° |
| 2026-05-05 05:51 | 35.97195 | 134.31272 | 38149 ft | 395 kts | 265° |
| 2026-05-05 05:51 | 35.97016 | 134.24487 | 38140 ft | 395 kts | 265° |
| 2026-05-05 05:52 | 35.96833 | 134.17702 | 38143 ft | 395 kts | 265° |
| 2026-05-05 05:52 | 35.96644 | 134.10903 | 38133 ft | 397 kts | 265° |
| 2026-05-05 05:53 | 35.96452 | 134.04083 | 38143 ft | 398 kts | 265° |
| 2026-05-05 05:53 | 35.96257 | 133.97279 | 38147 ft | 398 kts | 265° |
| 2026-05-05 05:54 | 35.96056 | 133.90442 | 38145 ft | 398 kts | 265° |
| 2026-05-05 05:54 | 35.95847 | 133.83601 | 38150 ft | 399 kts | 265° |
| 2026-05-05 05:55 | 35.95639 | 133.76761 | 38152 ft | 399 kts | 265° |
| 2026-05-05 05:55 | 35.95428 | 133.69915 | 38141 ft | 400 kts | 265° |
| 2026-05-05 05:56 | 35.95212 | 133.63090 | 38139 ft | 400 kts | 265° |
| 2026-05-05 05:56 | 35.94991 | 133.56221 | 38142 ft | 400 kts | 265° |
| 2026-05-05 05:57 | 35.94765 | 133.49346 | 38143 ft | 400 kts | 265° |
| 2026-05-05 05:57 | 35.94535 | 133.42477 | 38158 ft | 400 kts | 265° |
| 2026-05-05 05:58 | 35.94300 | 133.35590 | 38136 ft | 401 kts | 265° |
| 2026-05-05 05:58 | 35.94064 | 133.28738 | 38137 ft | 402 kts | 265° |
| 2026-05-05 05:59 | 35.93821 | 133.21836 | 38154 ft | 402 kts | 265° |
| 2026-05-05 05:59 | 35.93574 | 133.14935 | 38133 ft | 403 kts | 265° |
| 2026-05-05 06:00 | 35.93325 | 133.08034 | 38149 ft | 402 kts | 265° |
| 2026-05-05 06:00 | 35.93114 | 133.02302 | 38145 ft | 402 kts | 265° |
| 2026-05-05 06:01 | 35.92854 | 132.95397 | 38134 ft | 403 kts | 265° |
| 2026-05-05 06:01 | 35.92592 | 132.88483 | 38134 ft | 403 kts | 265° |
| 2026-05-05 06:02 | 35.92326 | 132.81555 | 38134 ft | 404 kts | 265° |
| 2026-05-05 06:02 | 35.92056 | 132.74636 | 38106 ft | 403 kts | 265° |
| 2026-05-05 06:03 | 35.91785 | 132.67782 | 38135 ft | 402 kts | 265° |
| 2026-05-05 06:03 | 35.91507 | 132.60887 | 38165 ft | 402 kts | 265° |
| 2026-05-05 06:04 | 35.91224 | 132.53990 | 38127 ft | 403 kts | 265° |
| 2026-05-05 06:04 | 35.90938 | 132.47081 | 38126 ft | 403 kts | 265° |
| 2026-05-05 06:05 | 35.90649 | 132.40168 | 38143 ft | 403 kts | 265° |
| 2026-05-05 06:05 | 35.90355 | 132.33250 | 38129 ft | 404 kts | 264° |
| 2026-05-05 06:06 | 35.90057 | 132.26333 | 38128 ft | 404 kts | 264° |
| 2026-05-05 06:06 | 35.89756 | 132.19460 | 38143 ft | 404 kts | 264° |
| 2026-05-05 06:07 | 35.89449 | 132.12522 | 38127 ft | 405 kts | 264° |
| 2026-05-05 06:07 | 35.89137 | 132.05576 | 38126 ft | 405 kts | 264° |
| 2026-05-05 06:08 | 35.88822 | 131.98619 | 38139 ft | 406 kts | 264° |
| 2026-05-05 06:08 | 35.88502 | 131.91663 | 38127 ft | 405 kts | 264° |
| 2026-05-05 06:09 | 35.88179 | 131.84727 | 38128 ft | 406 kts | 264° |
| 2026-05-05 06:09 | 35.87851 | 131.77782 | 38131 ft | 406 kts | 264° |
| 2026-05-05 06:10 | 35.87519 | 131.70823 | 38118 ft | 407 kts | 264° |
| 2026-05-05 06:10 | 35.87182 | 131.63849 | 38121 ft | 407 kts | 264° |
| 2026-05-05 06:11 | 35.86843 | 131.56920 | 38104 ft | 407 kts | 264° |
| 2026-05-05 06:11 | 35.86499 | 131.49953 | 38121 ft | 407 kts | 264° |
| 2026-05-05 06:12 | 35.86149 | 131.42979 | 38119 ft | 408 kts | 264° |
| 2026-05-05 06:12 | 35.85796 | 131.35995 | 38122 ft | 408 kts | 264° |
| 2026-05-05 06:13 | 35.85437 | 131.29007 | 38110 ft | 409 kts | 264° |
| 2026-05-05 06:13 | 35.85074 | 131.22006 | 38114 ft | 409 kts | 264° |
| 2026-05-05 06:14 | 35.84707 | 131.14992 | 38122 ft | 409 kts | 264° |
| 2026-05-05 06:14 | 35.84336 | 131.07988 | 38114 ft | 410 kts | 264° |
| 2026-05-05 06:15 | 35.83960 | 131.00970 | 38117 ft | 410 kts | 264° |
| 2026-05-05 06:15 | 35.83582 | 130.93991 | 38116 ft | 410 kts | 264° |
| 2026-05-05 06:16 | 35.83196 | 130.86955 | 38107 ft | 411 kts | 264° |
| 2026-05-05 06:16 | 35.82808 | 130.79913 | 38108 ft | 412 kts | 264° |
| 2026-05-05 06:17 | 35.82576 | 130.72908 | 38119 ft | 413 kts | 269° |
| 2026-05-05 06:17 | 35.83216 | 130.65838 | 38119 ft | 416 kts | 275° |
| 2026-05-05 06:18 | 35.84123 | 130.58796 | 38112 ft | 415 kts | 275° |
| 2026-05-05 06:18 | 35.85014 | 130.51750 | 38113 ft | 415 kts | 275° |
| 2026-05-05 06:19 | 35.85899 | 130.44716 | 38095 ft | 416 kts | 275° |
| 2026-05-05 06:19 | 35.86785 | 130.37651 | 38096 ft | 417 kts | 275° |
| 2026-05-05 06:20 | 35.87663 | 130.30626 | 38103 ft | 417 kts | 275° |
| 2026-05-05 06:20 | 35.88543 | 130.23539 | 38108 ft | 418 kts | 275° |
| 2026-05-05 06:21 | 35.89423 | 130.16415 | 38090 ft | 419 kts | 275° |
| 2026-05-05 06:21 | 35.90293 | 130.09356 | 38101 ft | 418 kts | 275° |
| 2026-05-05 06:22 | 35.91162 | 130.02263 | 38115 ft | 418 kts | 275° |
| 2026-05-05 06:22 | 35.92025 | 129.95159 | 38089 ft | 419 kts | 275° |
| 2026-05-05 06:23 | 35.92888 | 129.88049 | 38086 ft | 419 kts | 275° |
| 2026-05-05 06:23 | 35.93747 | 129.80929 | 38082 ft | 419 kts | 275° |
| 2026-05-05 06:24 | 35.94596 | 129.73840 | 38070 ft | 421 kts | 275° |
| 2026-05-05 06:24 | 35.95449 | 129.66690 | 38066 ft | 421 kts | 275° |
| 2026-05-05 06:25 | 35.96299 | 129.59540 | 38073 ft | 421 kts | 275° |
| 2026-05-05 06:25 | 35.97288 | 129.52384 | 38064 ft | 425 kts | 281° |
| 2026-05-05 06:26 | 35.99342 | 129.45480 | 38060 ft | 433 kts | 291° |
| 2026-05-05 06:26 | 36.02521 | 129.39157 | 38055 ft | 440 kts | 300° |
| 2026-05-05 06:27 | 36.07865 | 129.29923 | 38046 ft | 441 kts | 300° |
| 2026-05-05 06:28 | 36.11418 | 129.23747 | 38048 ft | 441 kts | 300° |
| 2026-05-05 06:28 | 36.14977 | 129.17554 | 38049 ft | 442 kts | 300° |
| 2026-05-05 06:29 | 36.18541 | 129.11344 | 38062 ft | 442 kts | 300° |
| 2026-05-05 06:29 | 36.22104 | 129.05125 | 38057 ft | 442 kts | 300° |
| 2026-05-05 06:30 | 36.25640 | 128.98944 | 38054 ft | 442 kts | 300° |
| 2026-05-05 06:30 | 36.29189 | 128.92727 | 38046 ft | 442 kts | 300° |
| 2026-05-05 06:31 | 36.32737 | 128.86498 | 38052 ft | 442 kts | 300° |
| 2026-05-05 06:31 | 36.36283 | 128.80260 | 38051 ft | 442 kts | 300° |
| 2026-05-05 06:32 | 36.39809 | 128.74051 | 38046 ft | 442 kts | 300° |
| 2026-05-05 06:32 | 36.43348 | 128.67807 | 38048 ft | 442 kts | 300° |
| 2026-05-05 06:33 | 36.46889 | 128.61547 | 38044 ft | 442 kts | 300° |
| 2026-05-05 06:33 | 36.50402 | 128.55325 | 38043 ft | 442 kts | 300° |
| 2026-05-05 06:34 | 36.53931 | 128.49065 | 38055 ft | 442 kts | 300° |
| 2026-05-05 06:34 | 36.57460 | 128.42787 | 38039 ft | 442 kts | 301° |
| 2026-05-05 06:35 | 36.60985 | 128.36511 | 37813 ft | 442 kts | 301° |
| 2026-05-05 06:35 | 36.62744 | 128.33376 | 37565 ft | 442 kts | 301° |
| 2026-05-05 06:35 | 36.64506 | 128.30243 | 37301 ft | 442 kts | 301° |
| 2026-05-05 06:35 | 36.66287 | 128.27118 | 37035 ft | 443 kts | 301° |
| 2026-05-05 06:36 | 36.68071 | 128.23998 | 36785 ft | 444 kts | 301° |
| 2026-05-05 06:36 | 36.69859 | 128.20867 | 36522 ft | 444 kts | 301° |
| 2026-05-05 06:36 | 36.71652 | 128.17720 | 36060 ft | 445 kts | 301° |
| 2026-05-05 06:36 | 36.73436 | 128.14579 | 35528 ft | 445 kts | 301° |
| 2026-05-05 06:37 | 36.75226 | 128.11427 | 34944 ft | 445 kts | 302° |
| 2026-05-05 06:37 | 36.77017 | 128.08268 | 34249 ft | 447 kts | 302° |
| 2026-05-05 06:37 | 36.78812 | 128.05100 | 33471 ft | 449 kts | 302° |
| 2026-05-05 06:37 | 36.80621 | 128.01901 | 32580 ft | 453 kts | 302° |
| 2026-05-05 06:38 | 36.82445 | 127.98668 | 31652 ft | 458 kts | 302° |
| 2026-05-05 06:38 | 36.84264 | 127.95444 | 30868 ft | 461 kts | 303° |
| 2026-05-05 06:38 | 36.86113 | 127.92165 | 30171 ft | 462 kts | 303° |
| 2026-05-05 06:38 | 36.87972 | 127.88863 | 29173 ft | 467 kts | 303° |
| 2026-05-05 06:39 | 36.89847 | 127.85531 | 28193 ft | 471 kts | 303° |
| 2026-05-05 06:39 | 36.91732 | 127.82174 | 27247 ft | 474 kts | 304° |
| 2026-05-05 06:39 | 36.93634 | 127.78787 | 26331 ft | 477 kts | 303° |
| 2026-05-05 06:39 | 36.95539 | 127.75401 | 25679 ft | 474 kts | 304° |
| 2026-05-05 06:40 | 36.97418 | 127.72059 | 24926 ft | 463 kts | 304° |
| 2026-05-05 06:40 | 36.99255 | 127.68789 | 24190 ft | 453 kts | 304° |
| 2026-05-05 06:40 | 37.01040 | 127.65610 | 23627 ft | 439 kts | 304° |
| 2026-05-05 06:40 | 37.02749 | 127.62565 | 22991 ft | 427 kts | 304° |
| 2026-05-05 06:41 | 37.04432 | 127.59556 | 22345 ft | 416 kts | 304° |
| 2026-05-05 06:41 | 37.06083 | 127.56601 | 21725 ft | 414 kts | 304° |
| 2026-05-05 06:41 | 37.07747 | 127.53618 | 21118 ft | 420 kts | 304° |
| 2026-05-05 06:41 | 37.09403 | 127.50647 | 20522 ft | 419 kts | 304° |
| 2026-05-05 06:42 | 37.11086 | 127.47649 | 19922 ft | 416 kts | 306° |
| 2026-05-05 06:42 | 37.12997 | 127.44942 | 19344 ft | 414 kts | 316° |
| 2026-05-05 06:42 | 37.15228 | 127.42665 | 18780 ft | 411 kts | 325° |
| 2026-05-05 06:42 | 37.17662 | 127.40812 | 18228 ft | 408 kts | 329° |
| 2026-05-05 06:43 | 37.20094 | 127.39018 | 17587 ft | 405 kts | 329° |
| 2026-05-05 06:43 | 37.22512 | 127.37214 | 16956 ft | 402 kts | 329° |
| 2026-05-05 06:43 | 37.24901 | 127.35425 | 16348 ft | 399 kts | 329° |
| 2026-05-05 06:43 | 37.27290 | 127.33678 | 15760 ft | 395 kts | 333° |
| 2026-05-05 06:44 | 37.29889 | 127.32593 | 15183 ft | 392 kts | 350° |
| 2026-05-05 06:44 | 37.32598 | 127.32474 | 14614 ft | 389 kts | 6° |
| 2026-05-05 06:44 | 37.35259 | 127.32993 | 14060 ft | 386 kts | 9° |
| 2026-05-05 06:44 | 37.37907 | 127.33516 | 13442 ft | 383 kts | 9° |
| 2026-05-05 06:45 | 37.40500 | 127.34020 | 12827 ft | 381 kts | 9° |
| 2026-05-05 06:45 | 37.43109 | 127.34525 | 12218 ft | 378 kts | 8° |
| 2026-05-05 06:45 | 37.45705 | 127.35027 | 11617 ft | 376 kts | 8° |
| 2026-05-05 06:45 | 37.48281 | 127.35522 | 11032 ft | 373 kts | 7° |
| 2026-05-05 06:46 | 37.50834 | 127.36015 | 10454 ft | 370 kts | 7° |
| 2026-05-05 06:46 | 37.53372 | 127.36503 | 9885 ft | 367 kts | 7° |
| 2026-05-05 06:46 | 37.55886 | 127.36992 | 9353 ft | 362 kts | 8° |
| 2026-05-05 06:46 | 37.57478 | 127.37535 | 9211 ft | 354 kts | 21° |
| 2026-05-05 06:47 | 37.59516 | 127.39134 | 9040 ft | 340 kts | 40° |
| 2026-05-05 06:47 | 37.61194 | 127.41133 | 8882 ft | 324 kts | 44° |
| 2026-05-05 06:47 | 37.62752 | 127.43092 | 8731 ft | 308 kts | 44° |
| 2026-05-05 06:47 | 37.64267 | 127.44909 | 8572 ft | 292 kts | 42° |
| 2026-05-05 06:48 | 37.65736 | 127.46580 | 8423 ft | 276 kts | 43° |
| 2026-05-05 06:48 | 37.66800 | 127.48485 | 8259 ft | 260 kts | 72° |
| 2026-05-05 06:48 | 37.67015 | 127.50674 | 7997 ft | 248 kts | 103° |
| 2026-05-05 06:48 | 37.66368 | 127.52608 | 7667 ft | 237 kts | 135° |
| 2026-05-05 06:49 | 37.65077 | 127.53777 | 7312 ft | 226 kts | 167° |
| 2026-05-05 06:49 | 37.63573 | 127.53844 | 6990 ft | 216 kts | 202° |
| 2026-05-05 06:49 | 37.62360 | 127.52792 | 6876 ft | 211 kts | 237° |
| 2026-05-05 06:49 | 37.61891 | 127.51055 | 6925 ft | 224 kts | 271° |
| 2026-05-05 06:50 | 37.62077 | 127.49100 | 7642 ft | 234 kts | 273° |
| 2026-05-05 06:50 | 37.62280 | 127.46899 | 7439 ft | 264 kts | 277° |
| 2026-05-05 06:50 | 37.62565 | 127.44584 | 7083 ft | 267 kts | 277° |
| 2026-05-05 06:50 | 37.62830 | 127.42318 | 6964 ft | 258 kts | 276° |
| 2026-05-05 06:51 | 37.63063 | 127.40022 | 6942 ft | 267 kts | 275° |
| 2026-05-05 06:51 | 37.63273 | 127.37733 | 6844 ft | 264 kts | 275° |
| 2026-05-05 06:51 | 37.63438 | 127.35432 | 6436 ft | 261 kts | 269° |
| 2026-05-05 06:51 | 37.63385 | 127.33148 | 5913 ft | 259 kts | 266° |
| 2026-05-05 06:52 | 37.63334 | 127.30880 | 5375 ft | 257 kts | 266° |
| 2026-05-05 06:52 | 37.63288 | 127.28639 | 4867 ft | 255 kts | 266° |
| 2026-05-05 06:52 | 37.63238 | 127.26414 | 4420 ft | 247 kts | 266° |
| 2026-05-05 06:52 | 37.63191 | 127.24332 | 4299 ft | 230 kts | 265° |
| 2026-05-05 06:53 | 37.63141 | 127.22372 | 4189 ft | 216 kts | 265° |
| 2026-05-05 06:53 | 37.63105 | 127.20530 | 4102 ft | 200 kts | 265° |
| 2026-05-05 06:53 | 37.63072 | 127.18890 | 3978 ft | 179 kts | 265° |
| 2026-05-05 06:53 | 37.63041 | 127.17383 | 3601 ft | 166 kts | 265° |
| 2026-05-05 06:54 | 37.62900 | 127.15949 | 3497 ft | 173 kts | 246° |
| 2026-05-05 06:54 | 37.62116 | 127.14832 | 3393 ft | 172 kts | 213° |
| 2026-05-05 06:54 | 37.61002 | 127.14291 | 3233 ft | 176 kts | 196° |
| 2026-05-05 06:54 | 37.59796 | 127.14015 | 3103 ft | 173 kts | 191° |
| 2026-05-05 06:55 | 37.58652 | 127.13828 | 3010 ft | 158 kts | 192° |
| 2026-05-05 06:55 | 37.57620 | 127.13639 | 2839 ft | 144 kts | 192° |
| 2026-05-05 06:55 | 37.56627 | 127.13458 | 2424 ft | 142 kts | 192° |
| 2026-05-05 06:55 | 37.55684 | 127.13292 | 2086 ft | 133 kts | 194° |
| 2026-05-05 06:56 | 37.54769 | 127.13124 | 1817 ft | 138 kts | 194° |
| 2026-05-05 06:56 | 37.53811 | 127.12952 | 1512 ft | 137 kts | 192° |
| 2026-05-05 06:56 | 37.52874 | 127.12790 | 1133 ft | 135 kts | 194° |
| 2026-05-05 06:56 | 37.51897 | 127.12625 | 1175 ft | 145 kts | 194° |
| 2026-05-05 06:57 | 37.50881 | 127.12424 | 1196 ft | 147 kts | 194° |
| 2026-05-05 06:57 | 37.49885 | 127.12250 | 994 ft | 141 kts | 192° |
| 2026-05-05 06:57 | 37.48961 | 127.12084 | 788 ft | 135 kts | 193° |
| 2026-05-05 06:57 | 37.48027 | 127.11912 | 602 ft | 135 kts | 190° |
| 2026-05-05 06:58 | 37.47114 | 127.11753 | 410 ft | 131 kts | 193° |
| 2026-05-05 06:58 | 37.46196 | 127.11587 | 241 ft | 130 kts | 193° |
| 2026-05-05 06:58 | 37.45305 | 127.11426 | 110 ft | 128 kts | 189° |
| 2026-05-05 06:58 | 37.44566 | 127.11296 | 107 ft | 69 kts | 188° |
| 2026-05-05 06:59 | 37.44367 | 127.11260 | 105 ft | 4 kts | 187° |
| 2026-05-05 06:59 | 37.44319 | 127.11252 | 105 ft | 9 kts | 187° |
| 2026-05-05 06:59 | 37.44249 | 127.11240 | 105 ft | 11 kts | 187° |
| 2026-05-05 06:59 | 37.44164 | 127.11226 | 104 ft | 13 kts | 187° |
| 2026-05-05 07:00 | 37.44091 | 127.11189 | 104 ft | 10 kts | 243° |
| 2026-05-05 07:00 | 37.44075 | 127.11104 | 105 ft | 10 kts | 265° |
| 2026-05-05 07:00 | 37.44086 | 127.11017 | 106 ft | 11 kts | 280° |
| 2026-05-05 07:00 | 37.44117 | 127.10942 | 107 ft | 8 kts | 339° |
| 2026-05-05 07:01 | 37.44178 | 127.10954 | 107 ft | 12 kts | 7° |
| 2026-05-05 07:01 | 37.44311 | 127.10976 | 107 ft | 28 kts | 7° |
| 2026-05-05 07:01 | 37.44561 | 127.11016 | 107 ft | 42 kts | 8° |
| 2026-05-05 07:01 | 37.44818 | 127.11067 | 107 ft | 37 kts | 8° |
| 2026-05-05 07:02 | 37.44989 | 127.11051 | 107 ft | 6 kts | 277° |
| 2026-05-05 07:02 | 37.44979 | 127.10982 | 107 ft | 9 kts | 272° |
| 2026-05-05 07:02 | 37.44987 | 127.10896 | 107 ft | 11 kts | 277° |
| 2026-05-05 07:02 | 37.45001 | 127.10793 | 107 ft | 13 kts | 279° |
| 2026-05-05 07:03 | 37.45004 | 127.10769 | 107 ft | 0 kts | 279° |
| 2026-05-05 07:03 | 37.45004 | 127.10771 | 107 ft | 0 kts | 279° |